sensor_id;sensor_type;location;lat;lon;timestamp;P1;durP1;ratioP1;P2;durP2;ratioP2
61017;SDS011;48171;51.550;5.434;2023-01-26T00:01:48;142.57;;;35.78;;
61017;SDS011;48171;51.550;5.434;2023-01-26T00:04:13;139.65;;;35.42;;
61017;SDS011;48171;51.550;5.434;2023-01-26T00:06:39;145.77;;;34.03;;
61017;SDS011;48171;51.550;5.434;2023-01-26T00:09:04;143.27;;;34.30;;
61017;SDS011;48171;51.550;5.434;2023-01-26T00:11:29;142.35;;;33.40;;
61017;SDS011;48171;51.550;5.434;2023-01-26T00:13:55;135.40;;;33.17;;
61017;SDS011;48171;51.550;5.434;2023-01-26T00:16:22;142.25;;;35.58;;
61017;SDS011;48171;51.550;5.434;2023-01-26T00:18:48;132.73;;;33.25;;
61017;SDS011;48171;51.550;5.434;2023-01-26T00:21:14;147.20;;;35.80;;
61017;SDS011;48171;51.550;5.434;2023-01-26T00:23:41;127.32;;;31.80;;
61017;SDS011;48171;51.550;5.434;2023-01-26T00:26:07;145.80;;;34.70;;
61017;SDS011;48171;51.550;5.434;2023-01-26T00:28:34;131.05;;;34.58;;
61017;SDS011;48171;51.550;5.434;2023-01-26T00:31:03;140.88;;;35.28;;
61017;SDS011;48171;51.550;5.434;2023-01-26T00:33:30;133.43;;;34.28;;
61017;SDS011;48171;51.550;5.434;2023-01-26T00:35:55;138.63;;;32.72;;
61017;SDS011;48171;51.550;5.434;2023-01-26T00:38:20;134.82;;;32.20;;
61017;SDS011;48171;51.550;5.434;2023-01-26T00:40:46;129.70;;;30.95;;
61017;SDS011;48171;51.550;5.434;2023-01-26T00:43:11;144.70;;;32.90;;
61017;SDS011;48171;51.550;5.434;2023-01-26T00:45:36;140.30;;;33.20;;
61017;SDS011;48171;51.550;5.434;2023-01-26T00:48:02;140.82;;;34.17;;
61017;SDS011;48171;51.550;5.434;2023-01-26T00:50:27;135.00;;;34.75;;
61017;SDS011;48171;51.550;5.434;2023-01-26T00:52:52;126.30;;;30.83;;
61017;SDS011;48171;51.550;5.434;2023-01-26T00:55:18;128.48;;;31.10;;
61017;SDS011;48171;51.550;5.434;2023-01-26T00:57:43;126.82;;;33.25;;
61017;SDS011;48171;51.550;5.434;2023-01-26T01:00:09;131.35;;;32.72;;
61017;SDS011;48171;51.550;5.434;2023-01-26T01:02:37;124.65;;;30.35;;
61017;SDS011;48171;51.550;5.434;2023-01-26T01:05:02;121.80;;;31.35;;
61017;SDS011;48171;51.550;5.434;2023-01-26T01:07:28;126.38;;;31.92;;
61017;SDS011;48171;51.550;5.434;2023-01-26T01:09:53;115.45;;;28.95;;
61017;SDS011;48171;51.550;5.434;2023-01-26T01:12:19;116.97;;;31.15;;
61017;SDS011;48171;51.550;5.434;2023-01-26T01:14:44;120.70;;;30.40;;
61017;SDS011;48171;51.550;5.434;2023-01-26T01:17:09;115.30;;;31.45;;
61017;SDS011;48171;51.550;5.434;2023-01-26T01:19:34;111.53;;;29.77;;
61017;SDS011;48171;51.550;5.434;2023-01-26T01:22:00;114.18;;;30.17;;
61017;SDS011;48171;51.550;5.434;2023-01-26T01:24:25;113.57;;;29.15;;
61017;SDS011;48171;51.550;5.434;2023-01-26T01:26:50;119.20;;;30.77;;
61017;SDS011;48171;51.550;5.434;2023-01-26T01:29:16;113.38;;;29.88;;
61017;SDS011;48171;51.550;5.434;2023-01-26T01:31:41;119.32;;;30.77;;
61017;SDS011;48171;51.550;5.434;2023-01-26T01:34:07;108.93;;;29.70;;
61017;SDS011;48171;51.550;5.434;2023-01-26T01:36:35;118.03;;;31.73;;
61017;SDS011;48171;51.550;5.434;2023-01-26T01:39:00;113.53;;;30.35;;
61017;SDS011;48171;51.550;5.434;2023-01-26T01:41:25;112.70;;;28.85;;
61017;SDS011;48171;51.550;5.434;2023-01-26T01:44:09;115.78;;;31.02;;
61017;SDS011;48171;51.550;5.434;2023-01-26T01:46:44;109.75;;;28.95;;
61017;SDS011;48171;51.550;5.434;2023-01-26T01:49:15;108.43;;;27.67;;
61017;SDS011;48171;51.550;5.434;2023-01-26T01:51:48;112.35;;;27.90;;
61017;SDS011;48171;51.550;5.434;2023-01-26T01:54:19;105.00;;;26.88;;
61017;SDS011;48171;51.550;5.434;2023-01-26T01:59:17;103.80;;;27.73;;
61017;SDS011;48171;51.550;5.434;2023-01-26T02:01:44;107.45;;;26.05;;
61017;SDS011;48171;51.550;5.434;2023-01-26T02:04:11;105.65;;;26.55;;
61017;SDS011;48171;51.550;5.434;2023-01-26T02:06:41;106.95;;;28.20;;
61017;SDS011;48171;51.550;5.434;2023-01-26T02:09:13;111.43;;;29.60;;
61017;SDS011;48171;51.550;5.434;2023-01-26T02:12:00;104.95;;;28.15;;
61017;SDS011;48171;51.550;5.434;2023-01-26T02:14:27;114.38;;;28.80;;
61017;SDS011;48171;51.550;5.434;2023-01-26T02:16:53;117.15;;;29.02;;
61017;SDS011;48171;51.550;5.434;2023-01-26T02:19:27;114.60;;;28.55;;
61017;SDS011;48171;51.550;5.434;2023-01-26T02:22:04;108.13;;;28.40;;
61017;SDS011;48171;51.550;5.434;2023-01-26T02:24:36;109.75;;;27.45;;
61017;SDS011;48171;51.550;5.434;2023-01-26T02:27:04;107.93;;;29.00;;
61017;SDS011;48171;51.550;5.434;2023-01-26T02:29:30;114.72;;;27.08;;
61017;SDS011;48171;51.550;5.434;2023-01-26T02:31:55;109.40;;;26.75;;
61017;SDS011;48171;51.550;5.434;2023-01-26T02:34:22;106.25;;;28.23;;
61017;SDS011;48171;51.550;5.434;2023-01-26T02:36:58;103.95;;;28.05;;
61017;SDS011;48171;51.550;5.434;2023-01-26T02:41:59;106.95;;;27.50;;
61017;SDS011;48171;51.550;5.434;2023-01-26T02:44:45;119.57;;;28.77;;
61017;SDS011;48171;51.550;5.434;2023-01-26T02:47:15;101.32;;;26.50;;
61017;SDS011;48171;51.550;5.434;2023-01-26T02:49:41;101.45;;;26.75;;
61017;SDS011;48171;51.550;5.434;2023-01-26T02:52:15;100.93;;;26.67;;
61017;SDS011;48171;51.550;5.434;2023-01-26T02:54:42;109.00;;;27.30;;
61017;SDS011;48171;51.550;5.434;2023-01-26T02:57:26;104.35;;;25.50;;
61017;SDS011;48171;51.550;5.434;2023-01-26T02:59:54;111.38;;;28.40;;
61017;SDS011;48171;51.550;5.434;2023-01-26T03:02:19;99.40;;;25.92;;
61017;SDS011;48171;51.550;5.434;2023-01-26T03:04:45;96.10;;;26.35;;
61017;SDS011;48171;51.550;5.434;2023-01-26T03:07:10;99.38;;;25.40;;
61017;SDS011;48171;51.550;5.434;2023-01-26T03:09:35;111.50;;;27.00;;
61017;SDS011;48171;51.550;5.434;2023-01-26T03:12:01;99.25;;;24.92;;
61017;SDS011;48171;51.550;5.434;2023-01-26T03:14:27;98.10;;;25.60;;
61017;SDS011;48171;51.550;5.434;2023-01-26T03:16:52;108.05;;;27.02;;
61017;SDS011;48171;51.550;5.434;2023-01-26T03:19:17;92.70;;;27.13;;
61017;SDS011;48171;51.550;5.434;2023-01-26T03:22:01;92.07;;;24.95;;
61017;SDS011;48171;51.550;5.434;2023-01-26T03:24:45;98.03;;;26.00;;
61017;SDS011;48171;51.550;5.434;2023-01-26T03:27:32;94.03;;;25.90;;
61017;SDS011;48171;51.550;5.434;2023-01-26T03:30:06;97.00;;;24.08;;
61017;SDS011;48171;51.550;5.434;2023-01-26T03:32:31;96.97;;;25.90;;
61017;SDS011;48171;51.550;5.434;2023-01-26T03:34:56;95.65;;;24.98;;
61017;SDS011;48171;51.550;5.434;2023-01-26T03:37:22;95.75;;;24.88;;
61017;SDS011;48171;51.550;5.434;2023-01-26T03:39:48;95.90;;;27.02;;
61017;SDS011;48171;51.550;5.434;2023-01-26T03:42:33;86.68;;;24.15;;
61017;SDS011;48171;51.550;5.434;2023-01-26T03:45:20;100.40;;;27.63;;
61017;SDS011;48171;51.550;5.434;2023-01-26T03:48:06;98.10;;;23.52;;
61017;SDS011;48171;51.550;5.434;2023-01-26T03:50:51;95.65;;;25.10;;
61017;SDS011;48171;51.550;5.434;2023-01-26T03:53:35;88.18;;;22.90;;
61017;SDS011;48171;51.550;5.434;2023-01-26T03:56:19;100.20;;;25.25;;
61017;SDS011;48171;51.550;5.434;2023-01-26T03:58:57;104.82;;;25.60;;
61017;SDS011;48171;51.550;5.434;2023-01-26T04:01:34;79.55;;;21.73;;
61017;SDS011;48171;51.550;5.434;2023-01-26T04:04:01;84.55;;;23.08;;
61017;SDS011;48171;51.550;5.434;2023-01-26T04:06:45;83.68;;;22.08;;
61017;SDS011;48171;51.550;5.434;2023-01-26T04:09:31;80.53;;;22.58;;
61017;SDS011;48171;51.550;5.434;2023-01-26T04:11:57;88.15;;;23.83;;
61017;SDS011;48171;51.550;5.434;2023-01-26T04:14:22;87.95;;;24.48;;
61017;SDS011;48171;51.550;5.434;2023-01-26T04:17:06;81.40;;;21.63;;
61017;SDS011;48171;51.550;5.434;2023-01-26T04:19:50;74.72;;;19.80;;
61017;SDS011;48171;51.550;5.434;2023-01-26T04:22:35;82.63;;;21.83;;
61017;SDS011;48171;51.550;5.434;2023-01-26T04:25:05;80.25;;;21.33;;
61017;SDS011;48171;51.550;5.434;2023-01-26T04:27:32;74.75;;;22.52;;
61017;SDS011;48171;51.550;5.434;2023-01-26T04:29:59;72.35;;;19.73;;
61017;SDS011;48171;51.550;5.434;2023-01-26T04:32:24;78.78;;;21.55;;
61017;SDS011;48171;51.550;5.434;2023-01-26T04:34:51;72.15;;;20.77;;
61017;SDS011;48171;51.550;5.434;2023-01-26T04:37:16;79.95;;;22.40;;
61017;SDS011;48171;51.550;5.434;2023-01-26T04:39:41;75.57;;;20.13;;
61017;SDS011;48171;51.550;5.434;2023-01-26T04:42:06;75.35;;;20.55;;
61017;SDS011;48171;51.550;5.434;2023-01-26T04:44:32;76.13;;;21.13;;
61017;SDS011;48171;51.550;5.434;2023-01-26T04:46:57;73.65;;;20.33;;
61017;SDS011;48171;51.550;5.434;2023-01-26T04:49:23;69.18;;;19.52;;
61017;SDS011;48171;51.550;5.434;2023-01-26T04:51:50;73.13;;;19.38;;
61017;SDS011;48171;51.550;5.434;2023-01-26T04:54:16;66.82;;;19.23;;
61017;SDS011;48171;51.550;5.434;2023-01-26T04:56:41;70.93;;;19.23;;
61017;SDS011;48171;51.550;5.434;2023-01-26T04:59:08;68.30;;;19.85;;
61017;SDS011;48171;51.550;5.434;2023-01-26T05:01:34;60.67;;;18.05;;
61017;SDS011;48171;51.550;5.434;2023-01-26T05:04:00;73.70;;;19.38;;
61017;SDS011;48171;51.550;5.434;2023-01-26T05:06:26;78.32;;;18.83;;
61017;SDS011;48171;51.550;5.434;2023-01-26T05:08:52;72.63;;;19.02;;
61017;SDS011;48171;51.550;5.434;2023-01-26T05:11:17;72.97;;;19.92;;
61017;SDS011;48171;51.550;5.434;2023-01-26T05:13:42;67.10;;;18.52;;
61017;SDS011;48171;51.550;5.434;2023-01-26T05:16:10;76.00;;;20.10;;
61017;SDS011;48171;51.550;5.434;2023-01-26T05:18:38;70.75;;;20.77;;
61017;SDS011;48171;51.550;5.434;2023-01-26T05:21:03;69.30;;;19.77;;
61017;SDS011;48171;51.550;5.434;2023-01-26T05:23:28;75.00;;;18.80;;
61017;SDS011;48171;51.550;5.434;2023-01-26T05:25:54;73.70;;;19.45;;
61017;SDS011;48171;51.550;5.434;2023-01-26T05:28:21;73.65;;;19.95;;
61017;SDS011;48171;51.550;5.434;2023-01-26T05:30:47;79.55;;;19.70;;
61017;SDS011;48171;51.550;5.434;2023-01-26T05:33:12;69.65;;;20.23;;
61017;SDS011;48171;51.550;5.434;2023-01-26T05:35:37;69.72;;;18.67;;
61017;SDS011;48171;51.550;5.434;2023-01-26T05:38:02;75.10;;;19.65;;
61017;SDS011;48171;51.550;5.434;2023-01-26T05:40:28;63.75;;;17.67;;
61017;SDS011;48171;51.550;5.434;2023-01-26T05:42:55;70.65;;;17.77;;
61017;SDS011;48171;51.550;5.434;2023-01-26T05:45:21;59.15;;;17.08;;
61017;SDS011;48171;51.550;5.434;2023-01-26T05:47:46;55.83;;;15.80;;
61017;SDS011;48171;51.550;5.434;2023-01-26T05:50:15;69.20;;;16.88;;
61017;SDS011;48171;51.550;5.434;2023-01-26T05:52:42;65.22;;;17.77;;
61017;SDS011;48171;51.550;5.434;2023-01-26T05:55:10;66.65;;;16.60;;
61017;SDS011;48171;51.550;5.434;2023-01-26T05:57:38;58.42;;;17.15;;
61017;SDS011;48171;51.550;5.434;2023-01-26T06:00:04;56.78;;;16.52;;
61017;SDS011;48171;51.550;5.434;2023-01-26T06:02:29;60.03;;;16.02;;
61017;SDS011;48171;51.550;5.434;2023-01-26T06:04:55;61.13;;;17.23;;
61017;SDS011;48171;51.550;5.434;2023-01-26T06:07:20;62.42;;;15.77;;
61017;SDS011;48171;51.550;5.434;2023-01-26T06:09:46;58.72;;;16.20;;
61017;SDS011;48171;51.550;5.434;2023-01-26T06:12:12;52.28;;;15.32;;
61017;SDS011;48171;51.550;5.434;2023-01-26T06:14:40;57.67;;;15.60;;
61017;SDS011;48171;51.550;5.434;2023-01-26T06:17:05;49.92;;;15.80;;
61017;SDS011;48171;51.550;5.434;2023-01-26T06:19:30;53.13;;;14.25;;
61017;SDS011;48171;51.550;5.434;2023-01-26T06:21:58;51.38;;;14.63;;
61017;SDS011;48171;51.550;5.434;2023-01-26T06:24:23;56.42;;;15.52;;
61017;SDS011;48171;51.550;5.434;2023-01-26T06:26:49;56.40;;;15.15;;
61017;SDS011;48171;51.550;5.434;2023-01-26T06:29:14;60.03;;;15.20;;
61017;SDS011;48171;51.550;5.434;2023-01-26T06:31:40;62.00;;;17.45;;
61017;SDS011;48171;51.550;5.434;2023-01-26T06:34:06;51.58;;;14.80;;
61017;SDS011;48171;51.550;5.434;2023-01-26T06:36:32;56.35;;;15.23;;
61017;SDS011;48171;51.550;5.434;2023-01-26T06:38:58;54.17;;;15.20;;
61017;SDS011;48171;51.550;5.434;2023-01-26T06:41:23;47.83;;;13.60;;
61017;SDS011;48171;51.550;5.434;2023-01-26T06:43:49;50.85;;;14.18;;
61017;SDS011;48171;51.550;5.434;2023-01-26T06:46:14;53.30;;;14.20;;
61017;SDS011;48171;51.550;5.434;2023-01-26T06:48:41;52.65;;;14.80;;
61017;SDS011;48171;51.550;5.434;2023-01-26T06:56:19;49.38;;;13.35;;
61017;SDS011;48171;51.550;5.434;2023-01-26T06:58:45;51.00;;;12.98;;
61017;SDS011;48171;51.550;5.434;2023-01-26T07:01:29;47.17;;;13.52;;
61017;SDS011;48171;51.550;5.434;2023-01-26T07:03:58;47.13;;;13.15;;
61017;SDS011;48171;51.550;5.434;2023-01-26T07:06:24;51.55;;;13.57;;
61017;SDS011;48171;51.550;5.434;2023-01-26T07:08:49;51.67;;;14.13;;
61017;SDS011;48171;51.550;5.434;2023-01-26T07:11:14;50.67;;;13.93;;
61017;SDS011;48171;51.550;5.434;2023-01-26T07:13:41;48.28;;;14.38;;
61017;SDS011;48171;51.550;5.434;2023-01-26T07:16:10;49.85;;;13.27;;
61017;SDS011;48171;51.550;5.434;2023-01-26T07:18:37;51.35;;;14.18;;
61017;SDS011;48171;51.550;5.434;2023-01-26T07:21:03;50.10;;;14.32;;
61017;SDS011;48171;51.550;5.434;2023-01-26T07:23:30;52.75;;;14.23;;
61017;SDS011;48171;51.550;5.434;2023-01-26T07:25:56;46.42;;;13.73;;
61017;SDS011;48171;51.550;5.434;2023-01-26T07:28:21;54.33;;;14.52;;
61017;SDS011;48171;51.550;5.434;2023-01-26T07:30:47;49.65;;;12.85;;
61017;SDS011;48171;51.550;5.434;2023-01-26T07:33:13;55.65;;;14.02;;
61017;SDS011;48171;51.550;5.434;2023-01-26T07:35:38;55.45;;;14.80;;
61017;SDS011;48171;51.550;5.434;2023-01-26T07:38:04;55.70;;;14.48;;
61017;SDS011;48171;51.550;5.434;2023-01-26T07:40:30;47.08;;;14.40;;
61017;SDS011;48171;51.550;5.434;2023-01-26T07:42:55;58.03;;;14.65;;
61017;SDS011;48171;51.550;5.434;2023-01-26T07:45:21;50.10;;;15.20;;
61017;SDS011;48171;51.550;5.434;2023-01-26T07:47:46;50.72;;;14.02;;
61017;SDS011;48171;51.550;5.434;2023-01-26T07:50:12;56.35;;;15.73;;
61017;SDS011;48171;51.550;5.434;2023-01-26T07:52:38;45.72;;;14.38;;
61017;SDS011;48171;51.550;5.434;2023-01-26T07:55:03;47.13;;;13.48;;
61017;SDS011;48171;51.550;5.434;2023-01-26T07:57:29;67.28;;;16.23;;
61017;SDS011;48171;51.550;5.434;2023-01-26T07:59:54;61.65;;;15.18;;
61017;SDS011;48171;51.550;5.434;2023-01-26T08:02:20;50.75;;;13.10;;
61017;SDS011;48171;51.550;5.434;2023-01-26T08:04:45;64.55;;;15.93;;
61017;SDS011;48171;51.550;5.434;2023-01-26T08:07:10;59.03;;;15.00;;
61017;SDS011;48171;51.550;5.434;2023-01-26T08:09:36;53.17;;;15.23;;
61017;SDS011;48171;51.550;5.434;2023-01-26T08:12:01;56.00;;;14.35;;
61017;SDS011;48171;51.550;5.434;2023-01-26T08:14:26;58.17;;;16.25;;
61017;SDS011;48171;51.550;5.434;2023-01-26T08:16:52;52.88;;;14.55;;
61017;SDS011;48171;51.550;5.434;2023-01-26T08:19:17;55.58;;;15.90;;
61017;SDS011;48171;51.550;5.434;2023-01-26T08:21:42;65.60;;;15.02;;
61017;SDS011;48171;51.550;5.434;2023-01-26T08:24:10;54.70;;;14.32;;
61017;SDS011;48171;51.550;5.434;2023-01-26T08:26:35;54.33;;;14.63;;
61017;SDS011;48171;51.550;5.434;2023-01-26T08:29:01;64.57;;;15.73;;
61017;SDS011;48171;51.550;5.434;2023-01-26T08:31:26;55.78;;;13.98;;
61017;SDS011;48171;51.550;5.434;2023-01-26T08:33:52;50.03;;;14.60;;
61017;SDS011;48171;51.550;5.434;2023-01-26T08:36:19;64.78;;;15.65;;
61017;SDS011;48171;51.550;5.434;2023-01-26T08:38:45;58.28;;;15.80;;
61017;SDS011;48171;51.550;5.434;2023-01-26T08:41:10;56.95;;;14.38;;
61017;SDS011;48171;51.550;5.434;2023-01-26T08:43:36;51.03;;;14.93;;
61017;SDS011;48171;51.550;5.434;2023-01-26T08:46:02;55.75;;;14.85;;
61017;SDS011;48171;51.550;5.434;2023-01-26T08:48:28;61.13;;;15.65;;
61017;SDS011;48171;51.550;5.434;2023-01-26T08:50:56;62.20;;;16.88;;
61017;SDS011;48171;51.550;5.434;2023-01-26T08:53:23;59.83;;;16.30;;
61017;SDS011;48171;51.550;5.434;2023-01-26T08:55:49;66.05;;;17.42;;
61017;SDS011;48171;51.550;5.434;2023-01-26T08:58:14;60.50;;;15.30;;
61017;SDS011;48171;51.550;5.434;2023-01-26T09:00:39;53.75;;;16.13;;
61017;SDS011;48171;51.550;5.434;2023-01-26T09:03:05;59.08;;;16.02;;
61017;SDS011;48171;51.550;5.434;2023-01-26T09:05:31;57.13;;;15.27;;
61017;SDS011;48171;51.550;5.434;2023-01-26T09:07:59;64.95;;;15.82;;
61017;SDS011;48171;51.550;5.434;2023-01-26T09:10:24;56.13;;;14.98;;
61017;SDS011;48171;51.550;5.434;2023-01-26T09:12:50;71.40;;;17.33;;
61017;SDS011;48171;51.550;5.434;2023-01-26T09:15:15;67.38;;;17.15;;
61017;SDS011;48171;51.550;5.434;2023-01-26T09:17:41;62.03;;;17.42;;
61017;SDS011;48171;51.550;5.434;2023-01-26T09:20:07;73.68;;;17.42;;
61017;SDS011;48171;51.550;5.434;2023-01-26T09:22:36;70.43;;;18.10;;
61017;SDS011;48171;51.550;5.434;2023-01-26T09:25:02;68.55;;;17.60;;
61017;SDS011;48171;51.550;5.434;2023-01-26T09:27:27;59.35;;;17.00;;
61017;SDS011;48171;51.550;5.434;2023-01-26T09:29:52;67.70;;;16.98;;
61017;SDS011;48171;51.550;5.434;2023-01-26T09:32:20;71.15;;;17.73;;
61017;SDS011;48171;51.550;5.434;2023-01-26T09:34:46;65.68;;;17.70;;
61017;SDS011;48171;51.550;5.434;2023-01-26T09:37:11;73.28;;;19.15;;
61017;SDS011;48171;51.550;5.434;2023-01-26T09:39:37;74.10;;;17.88;;
61017;SDS011;48171;51.550;5.434;2023-01-26T09:50:43;69.75;;;16.80;;
61017;SDS011;48171;51.550;5.434;2023-01-26T09:53:50;68.15;;;18.20;;
61017;SDS011;48171;51.550;5.434;2023-01-26T09:56:19;67.93;;;17.58;;
61017;SDS011;48171;51.550;5.434;2023-01-26T09:58:48;62.03;;;16.50;;
61017;SDS011;48171;51.550;5.434;2023-01-26T10:01:39;72.00;;;18.27;;
61017;SDS011;48171;51.550;5.434;2023-01-26T10:06:51;79.60;;;17.48;;
61017;SDS011;48171;51.550;5.434;2023-01-26T10:09:22;80.63;;;19.25;;
61017;SDS011;48171;51.550;5.434;2023-01-26T10:11:52;70.82;;;16.65;;
61017;SDS011;48171;51.550;5.434;2023-01-26T10:14:33;63.42;;;18.58;;
61017;SDS011;48171;51.550;5.434;2023-01-26T10:17:04;77.05;;;18.27;;
61017;SDS011;48171;51.550;5.434;2023-01-26T10:19:38;65.68;;;17.45;;
61017;SDS011;48171;51.550;5.434;2023-01-26T10:22:10;69.97;;;18.25;;
61017;SDS011;48171;51.550;5.434;2023-01-26T10:24:39;77.03;;;18.42;;
61017;SDS011;48171;51.550;5.434;2023-01-26T10:27:09;66.28;;;16.63;;
61017;SDS011;48171;51.550;5.434;2023-01-26T10:29:35;79.03;;;19.17;;
61017;SDS011;48171;51.550;5.434;2023-01-26T10:32:01;79.07;;;18.90;;
61017;SDS011;48171;51.550;5.434;2023-01-26T10:34:27;76.30;;;18.92;;
61017;SDS011;48171;51.550;5.434;2023-01-26T10:36:55;79.20;;;19.23;;
61017;SDS011;48171;51.550;5.434;2023-01-26T10:39:58;80.10;;;19.67;;
61017;SDS011;48171;51.550;5.434;2023-01-26T10:42:26;83.65;;;20.98;;
61017;SDS011;48171;51.550;5.434;2023-01-26T10:44:53;80.10;;;20.40;;
61017;SDS011;48171;51.550;5.434;2023-01-26T10:47:19;82.63;;;20.75;;
61017;SDS011;48171;51.550;5.434;2023-01-26T10:49:46;92.28;;;19.55;;
61017;SDS011;48171;51.550;5.434;2023-01-26T10:52:19;93.25;;;21.30;;
61017;SDS011;48171;51.550;5.434;2023-01-26T10:54:46;77.93;;;18.98;;
61017;SDS011;48171;51.550;5.434;2023-01-26T10:57:28;92.75;;;20.98;;
61017;SDS011;48171;51.550;5.434;2023-01-26T10:59:57;88.93;;;21.60;;
61017;SDS011;48171;51.550;5.434;2023-01-26T11:02:25;91.68;;;20.17;;
61017;SDS011;48171;51.550;5.434;2023-01-26T11:07:37;84.95;;;19.70;;
61017;SDS011;48171;51.550;5.434;2023-01-26T11:10:37;83.60;;;20.60;;
61017;SDS011;48171;51.550;5.434;2023-01-26T11:13:07;97.30;;;21.08;;
61017;SDS011;48171;51.550;5.434;2023-01-26T11:15:38;86.35;;;18.20;;
61017;SDS011;48171;51.550;5.434;2023-01-26T11:18:26;80.90;;;19.43;;
61017;SDS011;48171;51.550;5.434;2023-01-26T11:24:46;74.07;;;16.55;;
61017;SDS011;48171;51.550;5.434;2023-01-26T11:34:55;70.85;;;18.92;;
61017;SDS011;48171;51.550;5.434;2023-01-26T11:40:56;77.15;;;18.52;;
61017;SDS011;48171;51.550;5.434;2023-01-26T11:46:38;79.57;;;17.55;;
61017;SDS011;48171;51.550;5.434;2023-01-26T11:55:25;77.15;;;16.50;;
61017;SDS011;48171;51.550;5.434;2023-01-26T12:00:49;70.40;;;16.40;;
61017;SDS011;48171;51.550;5.434;2023-01-26T12:05:56;79.47;;;16.27;;
61017;SDS011;48171;51.550;5.434;2023-01-26T12:11:07;79.85;;;15.18;;
61017;SDS011;48171;51.550;5.434;2023-01-26T12:13:55;57.95;;;12.70;;
61017;SDS011;48171;51.550;5.434;2023-01-26T12:21:34;54.13;;;11.88;;
61017;SDS011;48171;51.550;5.434;2023-01-26T12:24:02;45.92;;;10.73;;
61017;SDS011;48171;51.550;5.434;2023-01-26T12:26:36;51.47;;;12.25;;
61017;SDS011;48171;51.550;5.434;2023-01-26T12:29:16;58.65;;;12.32;;
61017;SDS011;48171;51.550;5.434;2023-01-26T12:34:25;59.03;;;11.23;;
61017;SDS011;48171;51.550;5.434;2023-01-26T12:39:37;51.20;;;11.35;;
61017;SDS011;48171;51.550;5.434;2023-01-26T12:44:56;46.70;;;9.68;;
61017;SDS011;48171;51.550;5.434;2023-01-26T12:50:15;43.05;;;9.45;;
61017;SDS011;48171;51.550;5.434;2023-01-26T12:53:00;41.38;;;9.90;;
61017;SDS011;48171;51.550;5.434;2023-01-26T12:55:51;39.42;;;9.43;;
61017;SDS011;48171;51.550;5.434;2023-01-26T12:58:22;33.90;;;7.22;;
61017;SDS011;48171;51.550;5.434;2023-01-26T13:01:06;38.70;;;8.57;;
61017;SDS011;48171;51.550;5.434;2023-01-26T13:03:35;30.85;;;6.53;;
61017;SDS011;48171;51.550;5.434;2023-01-26T13:11:04;29.80;;;5.80;;
61017;SDS011;48171;51.550;5.434;2023-01-26T13:18:55;26.33;;;5.10;;
61017;SDS011;48171;51.550;5.434;2023-01-26T13:24:48;28.60;;;4.95;;
61017;SDS011;48171;51.550;5.434;2023-01-26T13:26:51;36.72;;;5.80;;
61017;SDS011;48171;51.550;5.434;2023-01-26T13:31:44;29.13;;;4.55;;
61017;SDS011;48171;51.550;5.434;2023-01-26T13:34:09;23.20;;;5.15;;
61017;SDS011;48171;51.550;5.434;2023-01-26T13:36:38;28.20;;;3.63;;
61017;SDS011;48171;51.550;5.434;2023-01-26T13:42:09;20.63;;;3.72;;
61017;SDS011;48171;51.550;5.434;2023-01-26T13:44:43;22.52;;;3.60;;
61017;SDS011;48171;51.550;5.434;2023-01-26T13:47:17;24.95;;;4.20;;
61017;SDS011;48171;51.550;5.434;2023-01-26T13:49:48;18.52;;;3.38;;
61017;SDS011;48171;51.550;5.434;2023-01-26T13:54:40;23.15;;;3.33;;
61017;SDS011;48171;51.550;5.434;2023-01-26T13:57:09;21.38;;;3.83;;
61017;SDS011;48171;51.550;5.434;2023-01-26T13:59:46;15.23;;;3.35;;
61017;SDS011;48171;51.550;5.434;2023-01-26T14:02:34;30.50;;;4.05;;
61017;SDS011;48171;51.550;5.434;2023-01-26T14:05:00;22.65;;;3.75;;
61017;SDS011;48171;51.550;5.434;2023-01-26T14:07:28;34.70;;;5.18;;
61017;SDS011;48171;51.550;5.434;2023-01-26T14:09:57;29.08;;;5.75;;
61017;SDS011;48171;51.550;5.434;2023-01-26T14:15:15;16.80;;;4.40;;
61017;SDS011;48171;51.550;5.434;2023-01-26T14:17:51;27.10;;;3.40;;
61017;SDS011;48171;51.550;5.434;2023-01-26T14:20:26;23.08;;;4.13;;
61017;SDS011;48171;51.550;5.434;2023-01-26T14:23:10;17.75;;;3.17;;
61017;SDS011;48171;51.550;5.434;2023-01-26T14:25:40;20.20;;;3.20;;
61017;SDS011;48171;51.550;5.434;2023-01-26T14:28:15;19.27;;;2.83;;
61017;SDS011;48171;51.550;5.434;2023-01-26T14:30:49;13.10;;;2.25;;
61017;SDS011;48171;51.550;5.434;2023-01-26T14:33:16;16.10;;;2.30;;
61017;SDS011;48171;51.550;5.434;2023-01-26T14:35:42;40.58;;;4.25;;
61017;SDS011;48171;51.550;5.434;2023-01-26T14:38:19;15.07;;;2.70;;
61017;SDS011;48171;51.550;5.434;2023-01-26T14:40:49;17.40;;;2.40;;
61017;SDS011;48171;51.550;5.434;2023-01-26T14:45:46;16.10;;;2.85;;
61017;SDS011;48171;51.550;5.434;2023-01-26T14:48:13;20.83;;;3.22;;
61017;SDS011;48171;51.550;5.434;2023-01-26T14:50:43;18.15;;;2.63;;
61017;SDS011;48171;51.550;5.434;2023-01-26T14:53:15;15.60;;;2.38;;
61017;SDS011;48171;51.550;5.434;2023-01-26T14:55:43;16.70;;;3.25;;
61017;SDS011;48171;51.550;5.434;2023-01-26T14:58:23;12.60;;;1.95;;
61017;SDS011;48171;51.550;5.434;2023-01-26T15:00:51;13.38;;;2.08;;
61017;SDS011;48171;51.550;5.434;2023-01-26T15:03:25;15.30;;;2.40;;
61017;SDS011;48171;51.550;5.434;2023-01-26T15:06:02;11.18;;;2.30;;
61017;SDS011;48171;51.550;5.434;2023-01-26T15:09:00;18.55;;;2.53;;
61017;SDS011;48171;51.550;5.434;2023-01-26T15:11:28;16.42;;;2.47;;
61017;SDS011;48171;51.550;5.434;2023-01-26T15:14:31;12.15;;;2.13;;
61017;SDS011;48171;51.550;5.434;2023-01-26T15:16:59;13.02;;;2.40;;
61017;SDS011;48171;51.550;5.434;2023-01-26T15:19:25;13.65;;;2.83;;
61017;SDS011;48171;51.550;5.434;2023-01-26T15:21:55;17.85;;;2.50;;
61017;SDS011;48171;51.550;5.434;2023-01-26T15:24:20;22.10;;;2.85;;
61017;SDS011;48171;51.550;5.434;2023-01-26T15:26:46;16.27;;;2.67;;
61017;SDS011;48171;51.550;5.434;2023-01-26T15:29:24;14.30;;;2.22;;
61017;SDS011;48171;51.550;5.434;2023-01-26T15:31:54;15.18;;;2.20;;
61017;SDS011;48171;51.550;5.434;2023-01-26T15:34:28;18.20;;;2.65;;
61017;SDS011;48171;51.550;5.434;2023-01-26T15:36:56;14.32;;;2.15;;
61017;SDS011;48171;51.550;5.434;2023-01-26T15:39:22;11.38;;;2.20;;
61017;SDS011;48171;51.550;5.434;2023-01-26T15:41:59;12.68;;;2.30;;
61017;SDS011;48171;51.550;5.434;2023-01-26T15:44:25;19.25;;;2.47;;
61017;SDS011;48171;51.550;5.434;2023-01-26T15:46:51;15.57;;;2.25;;
61017;SDS011;48171;51.550;5.434;2023-01-26T15:49:16;11.45;;;1.60;;
61017;SDS011;48171;51.550;5.434;2023-01-26T15:51:46;11.82;;;1.65;;
61017;SDS011;48171;51.550;5.434;2023-01-26T15:54:14;14.18;;;2.17;;
61017;SDS011;48171;51.550;5.434;2023-01-26T15:56:39;10.73;;;3.35;;
61017;SDS011;48171;51.550;5.434;2023-01-26T15:59:05;14.88;;;1.95;;
61017;SDS011;48171;51.550;5.434;2023-01-26T16:01:30;10.48;;;3.08;;
61017;SDS011;48171;51.550;5.434;2023-01-26T16:03:56;12.40;;;1.85;;
61017;SDS011;48171;51.550;5.434;2023-01-26T16:06:24;14.15;;;2.13;;
61017;SDS011;48171;51.550;5.434;2023-01-26T16:08:52;12.35;;;2.17;;
61017;SDS011;48171;51.550;5.434;2023-01-26T16:11:18;19.83;;;2.30;;
61017;SDS011;48171;51.550;5.434;2023-01-26T16:13:45;19.70;;;2.42;;